Time;durP1;ratioP1;P1;durP2;ratioP2;P2;SDS_P1;SDS_P2;PMS_P1;PMS_P2;Temp;Humidity;BMP_temperature;BMP_pressure;BME280_temperature;BME280_humidity;BME280_pressure;Samples;Min_cycle;Max_cycle;Signal;HPM_P1;HPM_P2
2022/06/06 00:55:11;;;;;;;4.33;3.93;;;;;;;;;;1043918;26;20655;-73
2022/06/06 00:57:41;;;;;;;4.33;3.80;;;;;;;;;;4991038;28;20184;-76
2022/06/06 01:00:08;;;;;;;5.13;4.30;;;;;;;;;;4994648;28;20713;-73
2022/06/06 01:02:35;;;;;;;5.70;4.03;;;;;;;;;;4989518;28;20530;-73
2022/06/06 01:05:02;;;;;;;5.47;4.63;;;;;;;;;;5001862;28;20206;-74
2022/06/06 01:07:28;;;;;;;4.50;4.10;;;;;;;;;;5020300;28;20565;-73
2022/06/06 01:09:54;;;;;;;5.97;4.70;;;;;;;;;;5005957;28;20218;-74
2022/06/06 01:12:21;;;;;;;5.03;4.53;;;;;;;;;;4993253;28;20195;-73
2022/06/06 01:14:50;;;;;;;5.13;4.60;;;;;;;;;;4991403;28;20237;-76
2022/06/06 01:17:36;;;;;;;5.73;4.57;;;;;;;;;;4991955;28;20250;-73
2022/06/06 01:20:27;;;;;;;7.33;4.83;;;;;;;;;;4994921;28;20720;-76
2022/06/06 01:22:56;;;;;;;7.90;5.10;;;;;;;;;;4998708;28;20180;-73
2022/06/06 01:25:42;;;;;;;4.33;4.03;;;;;;;;;;4970149;28;20573;-74
2022/06/06 01:28:17;;;;;;;5.10;4.43;;;;;;;;;;4987380;28;20708;-76
2022/06/06 01:30:46;;;;;;;4.60;4.20;;;;;;;;;;4996123;28;20202;-74
2022/06/06 01:33:14;;;;;;;4.97;4.43;;;;;;;;;;5001283;28;20187;-73
2022/06/06 01:35:41;;;;;;;5.57;4.50;;;;;;;;;;5003025;28;20565;-74
2022/06/06 01:38:09;;;;;;;5.30;4.80;;;;;;;;;;5004288;28;20199;-73
2022/06/06 01:40:54;;;;;;;5.73;4.47;;;;;;;;;;5018699;28;20676;-73
2022/06/06 01:43:24;;;;;;;4.93;4.50;;;;;;;;;;5008733;28;20188;-75
2022/06/06 01:45:53;;;;;;;5.47;4.70;;;;;;;;;;5010930;28;20242;-74
2022/06/06 01:48:21;;;;;;;4.43;4.03;;;;;;;;;;4995775;28;20188;-74
2022/06/06 01:50:48;;;;;;;5.40;4.50;;;;;;;;;;4999752;28;20207;-74
2022/06/06 01:53:16;;;;;;;5.47;4.83;;;;;;;;;;5012139;28;20179;-74
2022/06/06 01:55:43;;;;;;;5.73;4.50;;;;;;;;;;4995885;28;20207;-74
2022/06/06 01:58:15;;;;;;;5.33;4.93;;;;;;;;;;5004311;28;20203;-78
2022/06/06 02:00:41;;;;;;;5.73;5.23;;;;;;;;;;5002158;28;20606;-76
2022/06/06 02:03:08;;;;;;;6.73;5.00;;;;;;;;;;5003316;28;20176;-75
2022/06/06 02:05:35;;;;;;;5.70;5.03;;;;;;;;;;4990522;28;20188;-74
2022/06/06 02:08:02;;;;;;;6.03;5.27;;;;;;;;;;4996883;28;20206;-76
2022/06/06 02:10:28;;;;;;;6.40;5.60;;;;;;;;;;5004268;28;20223;-75
2022/06/06 02:12:54;;;;;;;5.93;5.43;;;;;;;;;;4996682;28;20262;-75
2022/06/06 02:15:22;;;;;;;5.23;4.80;;;;;;;;;;5003271;28;20665;-74
2022/06/06 02:17:49;;;;;;;5.80;4.90;;;;;;;;;;5017861;28;20180;-74
2022/06/06 02:20:16;;;;;;;6.67;5.80;;;;;;;;;;5004718;28;20199;-74
2022/06/06 02:22:43;;;;;;;5.73;5.23;;;;;;;;;;4993337;28;20254;-76
2022/06/06 02:25:09;;;;;;;5.70;5.03;;;;;;;;;;5002008;28;21743;-73
2022/06/06 02:27:36;;;;;;;6.10;5.13;;;;;;;;;;4994320;28;20188;-73
2022/06/06 02:30:04;;;;;;;6.93;5.83;;;;;;;;;;4991810;28;20210;-74
2022/06/06 02:32:30;;;;;;;6.50;5.67;;;;;;;;;;4988299;28;20680;-73
2022/06/06 02:34:56;;;;;;;7.10;6.40;;;;;;;;;;5012909;28;20182;-74
2022/06/06 02:37:22;;;;;;;7.00;5.60;;;;;;;;;;4997017;28;20187;-74
2022/06/06 02:39:48;;;;;;;6.53;5.83;;;;;;;;;;4994759;28;20306;-74
2022/06/06 02:42:15;;;;;;;6.40;5.80;;;;;;;;;;5005852;28;20382;-75
2022/06/06 02:44:41;;;;;;;6.77;6.07;;;;;;;;;;5007535;28;20183;-73
2022/06/06 02:47:07;;;;;;;7.23;5.63;;;;;;;;;;4999441;28;20184;-77
2022/06/06 02:49:34;;;;;;;6.20;5.60;;;;;;;;;;4991459;28;20214;-75
2022/06/06 02:52:04;;;;;;;7.10;5.90;;;;;;;;;;4996060;28;20653;-74
2022/06/06 02:54:31;;;;;;;7.83;6.07;;;;;;;;;;5009640;28;20202;-74
2022/06/06 02:56:58;;;;;;;8.20;5.73;;;;;;;;;;4996411;28;20191;-74
2022/06/06 02:59:25;;;;;;;7.27;6.10;;;;;;;;;;5005961;28;20215;-74
2022/06/06 03:01:51;;;;;;;6.93;5.90;;;;;;;;;;5004437;28;20274;-73
2022/06/06 03:04:18;;;;;;;6.77;5.87;;;;;;;;;;5003475;28;20203;-73
2022/06/06 03:06:44;;;;;;;6.80;5.90;;;;;;;;;;5006665;28;20211;-74
2022/06/06 03:09:22;;;;;;;7.07;6.40;;;;;;;;;;4998426;28;20203;-74
2022/06/06 03:11:48;;;;;;;7.57;6.73;;;;;;;;;;4992820;28;20188;-74
2022/06/06 03:14:33;;;;;;;6.20;5.70;;;;;;;;;;5006400;28;20192;-75
2022/06/06 03:22:56;;;;;;;7.07;6.47;;;;;;;;;;4979687;28;20255;-74
2022/06/06 03:25:28;;;;;;;9.20;6.90;;;;;;;;;;4975318;28;20776;-74
2022/06/06 03:28:01;;;;;;;6.47;5.97;;;;;;;;;;4980965;28;20303;-76
2022/06/06 03:30:43;;;;;;;7.53;6.83;;;;;;;;;;4992006;28;20227;-73
2022/06/06 03:33:25;;;;;;;7.47;6.77;;;;;;;;;;4989401;28;20558;-74
2022/06/06 03:35:51;;;;;;;8.33;7.33;;;;;;;;;;4994206;28;20191;-76
2022/06/06 03:38:23;;;;;;;7.43;6.73;;;;;;;;;;4993255;28;20219;-74
2022/06/06 03:41:02;;;;;;;6.93;6.33;;;;;;;;;;4994663;28;20717;-76
2022/06/06 03:43:42;;;;;;;7.43;6.73;;;;;;;;;;4995052;28;20241;-73
2022/06/06 03:46:09;;;;;;;8.83;6.87;;;;;;;;;;4989015;28;20267;-73
2022/06/06 03:48:54;;;;;;;8.43;6.90;;;;;;;;;;5007787;28;20529;-74
2022/06/06 03:51:20;;;;;;;8.83;7.03;;;;;;;;;;4995088;28;20179;-73
2022/06/06 03:53:49;;;;;;;7.83;7.13;;;;;;;;;;5004611;28;20745;-73
2022/06/06 03:56:22;;;;;;;7.93;7.13;;;;;;;;;;5015095;28;20208;-75
2022/06/06 03:58:49;;;;;;;8.17;7.37;;;;;;;;;;5008010;28;20707;-74
2022/06/06 04:01:15;;;;;;;7.80;7.00;;;;;;;;;;5008334;28;20179;-73
2022/06/06 04:03:43;;;;;;;9.33;6.67;;;;;;;;;;4999448;28;20889;-73
2022/06/06 04:06:09;;;;;;;7.17;6.47;;;;;;;;;;4992850;28;20176;-73
2022/06/06 04:08:36;;;;;;;7.67;6.83;;;;;;;;;;4992803;28;20184;-73
2022/06/06 04:11:02;;;;;;;7.20;6.50;;;;;;;;;;5026627;28;20306;-75
2022/06/06 04:13:33;;;;;;;7.43;6.73;;;;;;;;;;5003916;28;20202;-75
2022/06/06 04:16:00;;;;;;;7.40;6.70;;;;;;;;;;5000446;28;20175;-76
2022/06/06 04:18:41;;;;;;;8.27;7.47;;;;;;;;;;5000515;28;20211;-73
2022/06/06 04:21:26;;;;;;;8.73;6.70;;;;;;;;;;4984037;28;20201;-74
2022/06/06 04:23:58;;;;;;;7.27;6.57;;;;;;;;;;5003064;28;20810;-77
2022/06/06 04:26:27;;;;;;;7.60;6.90;;;;;;;;;;4987851;28;20207;-75
2022/06/06 04:28:54;;;;;;;7.70;6.97;;;;;;;;;;4993322;28;20245;-73
2022/06/06 04:31:26;;;;;;;7.00;6.30;;;;;;;;;;4998810;28;20210;-73
2022/06/06 04:34:00;;;;;;;6.53;5.93;;;;;;;;;;5001950;28;20278;-73
2022/06/06 04:36:53;;;;;;;7.20;6.50;;;;;;;;;;5007403;28;20184;-73
2022/06/06 04:39:30;;;;;;;7.23;6.30;;;;;;;;;;4983711;28;20223;-74
2022/06/06 04:42:00;;;;;;;7.43;6.67;;;;;;;;;;4998296;28;20179;-73
2022/06/06 04:44:32;;;;;;;9.90;6.60;;;;;;;;;;4991271;28;20180;-76
2022/06/06 04:47:18;;;;;;;9.17;6.37;;;;;;;;;;4978312;28;20238;-77
2022/06/06 04:49:44;;;;;;;6.83;6.23;;;;;;;;;;4990148;28;20219;-74
2022/06/06 04:52:11;;;;;;;8.30;6.47;;;;;;;;;;4990132;28;20289;-73
2022/06/06 04:54:39;;;;;;;7.03;6.43;;;;;;;;;;4999211;28;20293;-76
2022/06/06 04:57:06;;;;;;;7.50;6.30;;;;;;;;;;4992431;28;20194;-76
2022/06/06 04:59:34;;;;;;;8.03;6.30;;;;;;;;;;4999007;28;20212;-74
2022/06/06 05:02:02;;;;;;;7.03;6.33;;;;;;;;;;4993097;28;20230;-74
2022/06/06 05:04:29;;;;;;;7.07;6.37;;;;;;;;;;4999150;28;20183;-74
2022/06/06 05:07:07;;;;;;;7.10;6.40;;;;;;;;;;4993902;28;20550;-73
2022/06/06 05:09:33;;;;;;;6.93;6.23;;;;;;;;;;4990097;28;20233;-73
2022/06/06 05:12:05;;;;;;;7.63;6.53;;;;;;;;;;4992045;28;20266;-76
2022/06/06 05:14:37;;;;;;;6.83;6.10;;;;;;;;;;4995431;28;20713;-74
2022/06/06 05:17:22;;;;;;;7.37;6.53;;;;;;;;;;5006462;28;20747;-74
2022/06/06 05:19:49;;;;;;;8.07;6.60;;;;;;;;;;4993738;28;20691;-74
2022/06/06 05:22:28;;;;;;;8.93;6.73;;;;;;;;;;4997659;28;20184;-74
2022/06/06 05:25:13;;;;;;;7.13;6.43;;;;;;;;;;5005511;28;20701;-74
2022/06/06 05:27:40;;;;;;;8.50;7.07;;;;;;;;;;5005571;28;20275;-73
2022/06/06 05:30:08;;;;;;;8.40;6.40;;;;;;;;;;5012105;28;20559;-73
2022/06/06 05:32:34;;;;;;;8.17;6.80;;;;;;;;;;5001703;28;20210;-74
2022/06/06 05:35:09;;;;;;;7.83;6.07;;;;;;;;;;5004073;28;20203;-73
2022/06/06 05:38:01;;;;;;;6.93;6.33;;;;;;;;;;4998551;28;20199;-78
2022/06/06 05:40:36;;;;;;;7.00;6.40;;;;;;;;;;4982077;28;20643;-74
2022/06/06 05:43:14;;;;;;;7.27;6.57;;;;;;;;;;4997458;28;20627;-75
2022/06/06 05:45:58;;;;;;;6.93;6.20;;;;;;;;;;4996011;28;20195;-75
2022/06/06 05:48:36;;;;;;;7.60;6.80;;;;;;;;;;4997054;28;20195;-77
2022/06/06 05:51:05;;;;;;;7.40;6.27;;;;;;;;;;4989563;28;20191;-77
2022/06/06 05:53:37;;;;;;;7.37;6.40;;;;;;;;;;4987570;28;20184;-75
2022/06/06 05:56:22;;;;;;;9.37;6.50;;;;;;;;;;4995402;28;20223;-76
2022/06/06 05:59:00;;;;;;;7.87;6.90;;;;;;;;;;5016039;28;20221;-76
2022/06/06 06:01:59;;;;;;;8.63;6.77;;;;;;;;;;5005831;28;20185;-76
2022/06/06 06:04:28;;;;;;;7.40;6.60;;;;;;;;;;4958613;28;21988;-77
2022/06/06 06:06:59;;;;;;;6.83;6.23;;;;;;;;;;5006123;28;20176;-76
2022/06/06 06:09:44;;;;;;;6.93;6.23;;;;;;;;;;4999174;28;20289;-77
2022/06/06 06:12:34;;;;;;;6.90;6.20;;;;;;;;;;4999025;28;20666;-76
2022/06/06 06:15:26;;;;;;;6.97;6.27;;;;;;;;;;4990773;28;20688;-76
2022/06/06 06:17:53;;;;;;;8.13;6.53;;;;;;;;;;4999603;28;20274;-78
2022/06/06 06:20:21;;;;;;;7.03;6.43;;;;;;;;;;5006898;28;20261;-77
2022/06/06 06:22:52;;;;;;;8.03;6.53;;;;;;;;;;4997865;28;20184;-76
2022/06/06 06:25:19;;;;;;;6.83;6.23;;;;;;;;;;5010741;28;20175;-76
2022/06/06 06:27:46;;;;;;;7.13;6.43;;;;;;;;;;4992123;28;20220;-76
2022/06/06 06:30:13;;;;;;;6.73;6.13;;;;;;;;;;5005656;28;20230;-75
2022/06/06 06:32:58;;;;;;;7.03;6.43;;;;;;;;;;5014178;28;21693;-76
2022/06/06 06:35:47;;;;;;;8.40;6.70;;;;;;;;;;5006043;28;20187;-75
2022/06/06 06:38:32;;;;;;;7.07;6.40;;;;;;;;;;4991591;28;20298;-75
2022/06/06 06:41:16;;;;;;;6.77;6.17;;;;;;;;;;4996891;28;20191;-76
2022/06/06 06:43:54;;;;;;;6.30;5.70;;;;;;;;;;5008079;28;20194;-77
2022/06/06 06:46:21;;;;;;;7.73;6.63;;;;;;;;;;4996491;28;20190;-76
2022/06/06 06:48:51;;;;;;;6.53;5.93;;;;;;;;;;4994040;28;20709;-76
2022/06/06 06:51:21;;;;;;;6.77;6.10;;;;;;;;;;5011846;28;20205;-76
2022/06/06 06:53:47;;;;;;;6.63;6.03;;;;;;;;;;5007518;28;20184;-75
2022/06/06 06:56:34;;;;;;;7.50;6.70;;;;;;;;;;4998344;28;20202;-76
2022/06/06 06:59:13;;;;;;;6.97;6.30;;;;;;;;;;4996344;28;20202;-76
2022/06/06 07:10:37;;;;;;;7.43;6.60;;;;;;;;;;4996646;28;20207;-78
2022/06/06 07:13:03;;;;;;;7.27;6.10;;;;;;;;;;5017437;28;20206;-77
2022/06/06 07:15:32;;;;;;;6.40;5.80;;;;;;;;;;5005060;28;20180;-75
2022/06/06 07:18:00;;;;;;;7.27;6.60;;;;;;;;;;4993335;28;20184;-76
2022/06/06 07:20:27;;;;;;;6.60;6.00;;;;;;;;;;4998642;28;20242;-79
2022/06/06 07:22:59;;;;;;;6.60;5.97;;;;;;;;;;4981018;28;20668;-76
2022/06/06 07:25:26;;;;;;;6.80;6.20;;;;;;;;;;5006053;28;20187;-76
2022/06/06 07:27:52;;;;;;;7.00;6.30;;;;;;;;;;4995505;28;20194;-76
2022/06/06 07:30:19;;;;;;;6.87;6.10;;;;;;;;;;5006365;28;20195;-76
2022/06/06 07:32:48;;;;;;;6.60;5.90;;;;;;;;;;5002839;28;20569;-78
2022/06/06 07:35:25;;;;;;;6.40;5.80;;;;;;;;;;4990585;28;20231;-76
2022/06/06 07:37:58;;;;;;;6.20;5.63;;;;;;;;;;4989919;28;20213;-78
2022/06/06 07:40:43;;;;;;;8.50;6.47;;;;;;;;;;5007046;28;20701;-76
2022/06/06 07:43:30;;;;;;;6.47;5.87;;;;;;;;;;5000379;28;20199;-78
2022/06/06 07:46:09;;;;;;;6.63;5.93;;;;;;;;;;4991399;28;20664;-76
2022/06/06 07:48:36;;;;;;;6.27;5.77;;;;;;;;;;5003785;28;20285;-76
2022/06/06 07:51:23;;;;;;;6.33;5.83;;;;;;;;;;4998397;28;20251;-79
2022/06/06 07:54:04;;;;;;;6.43;5.50;;;;;;;;;;4997819;28;20253;-76
2022/06/06 07:56:36;;;;;;;5.80;5.20;;;;;;;;;;5007924;28;20268;-76
2022/06/06 07:59:11;;;;;;;6.20;5.60;;;;;;;;;;4974035;28;20191;-76
2022/06/06 08:01:40;;;;;;;6.43;5.47;;;;;;;;;;4991641;28;20170;-76
2022/06/06 08:04:15;;;;;;;6.07;5.10;;;;;;;;;;5013527;28;20553;-78
2022/06/06 08:06:53;;;;;;;7.13;5.27;;;;;;;;;;5011971;28;20183;-76
2022/06/06 08:09:26;;;;;;;5.23;4.73;;;;;;;;;;4994256;28;20203;-77
2022/06/06 08:12:01;;;;;;;5.63;5.10;;;;;;;;;;5002239;28;20227;-77
2022/06/06 08:14:47;;;;;;;7.47;4.87;;;;;;;;;;5017410;28;20183;-76
2022/06/06 08:17:27;;;;;;;5.10;4.60;;;;;;;;;;4998059;28;20179;-77
2022/06/06 08:20:02;;;;;;;4.90;4.50;;;;;;;;;;4994120;28;20302;-76
2022/06/06 08:22:29;;;;;;;4.70;4.30;;;;;;;;;;5007054;28;20656;-77
2022/06/06 08:24:57;;;;;;;5.60;5.10;;;;;;;;;;5001525;28;20182;-76
2022/06/06 08:27:25;;;;;;;6.03;5.03;;;;;;;;;;4991909;28;20187;-77
2022/06/06 08:29:51;;;;;;;5.07;4.63;;;;;;;;;;4994480;28;20220;-77
2022/06/06 08:32:18;;;;;;;5.37;4.83;;;;;;;;;;5001569;28;20192;-76
2022/06/06 08:34:45;;;;;;;5.13;4.73;;;;;;;;;;4994183;28;20271;-76
2022/06/06 08:37:19;;;;;;;5.20;4.80;;;;;;;;;;4996916;28;20292;-77
2022/06/06 08:40:04;;;;;;;5.07;4.57;;;;;;;;;;5004018;28;20251;-77
2022/06/06 08:42:40;;;;;;;5.30;4.80;;;;;;;;;;5001164;28;20175;-77
2022/06/06 08:45:36;;;;;;;5.17;4.33;;;;;;;;;;4998845;28;20233;-76
2022/06/06 08:48:14;;;;;;;5.10;4.60;;;;;;;;;;4991816;28;20636;-77
2022/06/06 08:50:46;;;;;;;6.97;4.97;;;;;;;;;;4996906;28;20948;-76
2022/06/06 08:53:46;;;;;;;5.20;4.47;;;;;;;;;;5002839;28;20656;-77
2022/06/06 08:56:31;;;;;;;5.00;4.50;;;;;;;;;;4943190;28;20208;-77
2022/06/06 08:59:16;;;;;;;6.83;4.90;;;;;;;;;;4994035;28;20575;-79
2022/06/06 09:01:42;;;;;;;5.60;5.07;;;;;;;;;;4982329;28;20245;-78
2022/06/06 09:04:32;;;;;;;5.17;4.70;;;;;;;;;;5003971;28;20180;-76
2022/06/06 09:07:17;;;;;;;5.67;4.53;;;;;;;;;;4996037;28;20168;-77
2022/06/06 09:10:03;;;;;;;6.77;4.70;;;;;;;;;;5000598;28;20214;-77
2022/06/06 09:12:35;;;;;;;5.20;4.70;;;;;;;;;;5002688;28;20175;-77
2022/06/06 09:15:20;;;;;;;4.90;4.50;;;;;;;;;;5010750;28;20187;-77
2022/06/06 09:17:49;;;;;;;4.57;4.13;;;;;;;;;;5011221;28;20188;-76
2022/06/06 09:20:30;;;;;;;5.93;3.80;;;;;;;;;;4981720;28;20211;-76
2022/06/06 09:23:06;;;;;;;3.53;3.23;;;;;;;;;;5004691;28;20198;-78
2022/06/06 09:25:35;;;;;;;4.93;3.37;;;;;;;;;;4996201;28;20270;-79
2022/06/06 09:28:01;;;;;;;3.40;3.10;;;;;;;;;;5007838;28;20171;-77
2022/06/06 09:30:46;;;;;;;2.90;2.70;;;;;;;;;;5005421;28;20219;-77
2022/06/06 09:33:31;;;;;;;2.90;2.60;;;;;;;;;;4996902;28;20178;-76
2022/06/06 09:36:13;;;;;;;2.83;2.60;;;;;;;;;;4992341;28;20214;-77
2022/06/06 09:38:39;;;;;;;3.93;3.10;;;;;;;;;;4998923;28;20279;-77
2022/06/06 09:41:06;;;;;;;3.73;2.80;;;;;;;;;;5002885;28;20668;-76
2022/06/06 09:43:38;;;;;;;3.03;2.73;;;;;;;;;;4993647;28;20264;-77
2022/06/06 09:46:17;;;;;;;2.57;2.37;;;;;;;;;;5009046;28;20187;-77
2022/06/06 09:48:52;;;;;;;4.40;2.60;;;;;;;;;;5005518;28;20312;-76
2022/06/06 09:51:36;;;;;;;3.93;2.50;;;;;;;;;;4989062;28;20186;-76
2022/06/06 10:00:23;;;;;;;3.03;2.43;;;;;;;;;;4993474;28;20237;-76
2022/06/06 10:03:14;;;;;;;2.97;2.67;;;;;;;;;;4999692;28;20179;-78
2022/06/06 10:05:43;;;;;;;3.57;2.50;;;;;;;;;;5015764;28;20187;-78
2022/06/06 10:08:28;;;;;;;3.90;2.30;;;;;;;;;;5005079;28;20187;-77
2022/06/06 10:11:03;;;;;;;4.33;2.80;;;;;;;;;;4997374;28;20302;-79
2022/06/06 10:13:39;;;;;;;4.90;3.20;;;;;;;;;;5016715;28;20206;-77
2022/06/06 10:16:24;;;;;;;4.90;2.90;;;;;;;;;;4998566;28;20262;-73
2022/06/06 10:19:17;;;;;;;5.03;3.20;;;;;;;;;;4998138;28;20240;-78
2022/06/06 10:21:44;;;;;;;3.20;2.90;;;;;;;;;;4977638;28;20203;-76
2022/06/06 10:24:13;;;;;;;4.73;3.60;;;;;;;;;;5001257;28;20735;-82
2022/06/06 10:26:39;;;;;;;4.03;2.87;;;;;;;;;;5004061;28;20180;-79
2022/06/06 10:29:15;;;;;;;3.03;2.73;;;;;;;;;;4993475;28;20196;-82
2022/06/06 10:31:50;;;;;;;2.60;2.40;;;;;;;;;;5029136;28;20253;-83
2022/06/06 10:34:22;;;;;;;2.70;2.50;;;;;;;;;;5018590;28;20210;-84
2022/06/06 10:36:55;;;;;;;3.67;2.40;;;;;;;;;;5014140;28;20604;-84
2022/06/06 10:39:39;;;;;;;2.63;2.43;;;;;;;;;;4996925;28;20251;-83
2022/06/06 10:42:22;;;;;;;3.70;2.43;;;;;;;;;;5000866;28;20267;-82
2022/06/06 10:44:54;;;;;;;2.80;2.40;;;;;;;;;;5001199;28;20243;-81
2022/06/06 10:47:28;;;;;;;2.70;2.50;;;;;;;;;;5003871;28;20173;-84
2022/06/06 10:50:15;;;;;;;2.53;2.27;;;;;;;;;;5001288;28;20217;-85
2022/06/06 10:52:57;;;;;;;4.07;2.27;;;;;;;;;;4973068;28;20197;-84
2022/06/06 10:55:35;;;;;;;4.33;2.70;;;;;;;;;;4991939;28;20295;-82
2022/06/06 10:58:32;;;;;;;3.23;2.70;;;;;;;;;;4996072;28;20180;-81
2022/06/06 11:00:58;;;;;;;2.63;2.40;;;;;;;;;;4974781;28;20225;-83
2022/06/06 11:03:33;;;;;;;2.60;2.40;;;;;;;;;;4996308;28;20197;-81
2022/06/06 11:06:06;;;;;;;2.50;2.30;;;;;;;;;;4993970;28;20184;-76
2022/06/06 11:08:51;;;;;;;2.73;2.37;;;;;;;;;;4995121;28;20207;-76
2022/06/06 11:11:23;;;;;;;3.23;2.57;;;;;;;;;;4998256;28;20223;-76
2022/06/06 11:14:01;;;;;;;4.00;2.40;;;;;;;;;;4993897;28;20660;-76
2022/06/06 11:16:29;;;;;;;2.90;2.60;;;;;;;;;;4997697;28;20198;-76
2022/06/06 11:18:55;;;;;;;2.80;2.60;;;;;;;;;;4986357;28;20207;-76
2022/06/06 11:21:21;;;;;;;3.60;2.50;;;;;;;;;;5000797;28;20658;-80
2022/06/06 11:23:57;;;;;;;3.17;2.50;;;;;;;;;;4999794;28;20220;-77
2022/06/06 11:26:23;;;;;;;3.30;2.80;;;;;;;;;;5000305;28;20187;-77
2022/06/06 11:28:53;;;;;;;3.40;2.70;;;;;;;;;;5012478;28;20278;-77
2022/06/06 11:31:19;;;;;;;3.10;2.63;;;;;;;;;;5005579;28;20281;-79
2022/06/06 11:34:13;;;;;;;4.50;2.77;;;;;;;;;;5015331;28;20648;-78
2022/06/06 11:36:58;;;;;;;3.17;2.87;;;;;;;;;;4980290;28;20200;-79
2022/06/06 11:39:50;;;;;;;2.80;2.60;;;;;;;;;;5002152;28;20226;-77
2022/06/06 11:42:19;;;;;;;2.90;2.63;;;;;;;;;;4997028;28;20180;-76
2022/06/06 11:44:54;;;;;;;3.00;2.47;;;;;;;;;;5001772;28;20190;-82
2022/06/06 11:47:21;;;;;;;6.03;2.43;;;;;;;;;;4989483;28;20179;-76
2022/06/06 11:50:06;;;;;;;4.43;2.30;;;;;;;;;;5001658;28;20215;-76
2022/06/06 11:52:35;;;;;;;2.37;2.03;;;;;;;;;;4995633;28;20186;-77
2022/06/06 11:55:20;;;;;;;2.07;1.90;;;;;;;;;;5005735;28;20189;-76
2022/06/06 11:57:59;;;;;;;2.73;1.67;;;;;;;;;;4992127;28;20245;-76
2022/06/06 12:00:44;;;;;;;2.00;1.37;;;;;;;;;;5004152;28;20217;-81
2022/06/06 12:03:29;;;;;;;1.87;1.33;;;;;;;;;;5020049;28;20194;-80
2022/06/06 12:06:14;;;;;;;2.17;1.60;;;;;;;;;;4997886;28;20179;-76
2022/06/06 12:08:43;;;;;;;1.90;1.53;;;;;;;;;;5010665;28;20203;-75
2022/06/06 12:11:20;;;;;;;2.10;1.50;;;;;;;;;;4995573;28;20701;-75
2022/06/06 12:13:55;;;;;;;2.17;1.40;;;;;;;;;;4998433;28;20187;-75
2022/06/06 12:16:30;;;;;;;2.57;1.70;;;;;;;;;;4993848;28;20188;-75
2022/06/06 12:19:15;;;;;;;1.93;1.60;;;;;;;;;;4989424;28;20208;-77
2022/06/06 12:21:41;;;;;;;3.03;1.90;;;;;;;;;;5013840;28;20180;-78
2022/06/06 12:24:27;;;;;;;2.33;1.90;;;;;;;;;;5020364;28;20175;-76
2022/06/06 12:27:02;;;;;;;4.67;2.07;;;;;;;;;;5005825;28;20198;-78
2022/06/06 12:29:28;;;;;;;3.97;2.10;;;;;;;;;;4991366;28;20279;-76
2022/06/06 12:32:14;;;;;;;2.87;2.10;;;;;;;;;;4991943;28;20234;-76
2022/06/06 12:34:49;;;;;;;2.63;2.00;;;;;;;;;;4991033;28;20184;-76
2022/06/06 12:37:38;;;;;;;2.10;1.90;;;;;;;;;;4992002;28;20657;-76
2022/06/06 12:40:17;;;;;;;2.30;1.87;;;;;;;;;;4993110;28;20228;-76
2022/06/06 12:42:51;;;;;;;4.90;1.80;;;;;;;;;;4999370;28;20273;-76
2022/06/06 12:45:21;;;;;;;2.20;1.57;;;;;;;;;;5002250;28;20206;-75
2022/06/06 12:48:01;;;;;;;1.90;1.80;;;;;;;;;;4996113;28;20226;-76
2022/06/06 12:50:43;;;;;;;2.43;2.07;;;;;;;;;;4993632;28;20208;-76
2022/06/06 12:53:10;;;;;;;2.43;1.70;;;;;;;;;;4993409;28;20192;-77
2022/06/06 12:56:14;;;;;;;1.87;1.70;;;;;;;;;;5002441;28;20208;-77
2022/06/06 12:58:43;;;;;;;2.00;1.80;;;;;;;;;;4985485;28;20192;-75
2022/06/06 13:01:37;;;;;;;3.13;2.10;;;;;;;;;;5002601;28;20210;-76
2022/06/06 13:04:13;;;;;;;2.20;1.50;;;;;;;;;;5010148;28;20190;-76
2022/06/06 13:06:58;;;;;;;1.60;1.47;;;;;;;;;;5001899;28;20295;-74
2022/06/06 13:09:43;;;;;;;2.77;1.67;;;;;;;;;;4995600;28;20280;-75
2022/06/06 13:12:25;;;;;;;2.03;1.40;;;;;;;;;;4991359;28;20194;-74
2022/06/06 13:15:00;;;;;;;1.50;1.40;;;;;;;;;;4989968;28;20688;-74
2022/06/06 13:17:48;;;;;;;2.33;1.50;;;;;;;;;;4996654;28;20679;-77
2022/06/06 13:20:27;;;;;;;1.63;1.53;;;;;;;;;;4996919;28;20253;-76
2022/06/06 13:23:02;;;;;;;2.27;1.60;;;;;;;;;;4989751;28;20179;-77
2022/06/06 13:25:37;;;;;;;1.50;1.40;;;;;;;;;;4991862;28;20264;-74
2022/06/06 13:28:27;;;;;;;1.53;1.40;;;;;;;;;;4987430;28;20189;-75
2022/06/06 13:30:58;;;;;;;2.17;1.23;;;;;;;;;;5025501;28;20245;-74
2022/06/06 13:33:33;;;;;;;2.80;1.10;;;;;;;;;;5026670;28;20168;-74
2022/06/06 13:36:08;;;;;;;2.23;1.10;;;;;;;;;;5010534;28;22280;-74
2022/06/06 13:38:57;;;;;;;2.20;1.10;;;;;;;;;;4998134;28;20179;-74
2022/06/06 13:41:42;;;;;;;2.37;1.13;;;;;;;;;;4965411;28;20286;-78
2022/06/06 13:44:27;;;;;;;2.00;1.07;;;;;;;;;;5000213;28;20180;-74
2022/06/06 13:47:03;;;;;;;1.83;1.10;;;;;;;;;;5001058;28;20199;-74
2022/06/06 13:49:29;;;;;;;1.20;1.10;;;;;;;;;;5012634;28;20233;-75
2022/06/06 13:51:57;;;;;;;3.03;1.30;;;;;;;;;;5014265;28;20186;-75
2022/06/06 13:54:33;;;;;;;2.80;1.20;;;;;;;;;;5014215;28;20194;-75
2022/06/06 13:57:02;;;;;;;1.73;1.00;;;;;;;;;;5004211;28;20196;-75
2022/06/06 13:59:47;;;;;;;1.30;1.20;;;;;;;;;;5000120;28;20272;-77
2022/06/06 14:02:22;;;;;;;3.50;1.10;;;;;;;;;;5001493;28;20183;-75
2022/06/06 14:04:55;;;;;;;1.57;1.20;;;;;;;;;;4994460;28;20184;-74
2022/06/06 14:07:36;;;;;;;1.33;1.23;;;;;;;;;;4994337;28;20210;-74
2022/06/06 14:10:08;;;;;;;5.50;1.40;;;;;;;;;;4992654;28;20637;-76
2022/06/06 14:12:53;;;;;;;2.13;1.37;;;;;;;;;;5004132;28;20205;-74
2022/06/06 14:15:21;;;;;;;1.60;1.47;;;;;;;;;;4993930;28;20742;-76
2022/06/06 14:17:58;;;;;;;2.17;1.40;;;;;;;;;;5018406;28;20195;-74
2022/06/06 14:20:36;;;;;;;2.03;1.40;;;;;;;;;;4993943;28;20361;-74
2022/06/06 14:23:21;;;;;;;2.27;1.47;;;;;;;;;;4989473;28;20167;-74
2022/06/06 14:25:49;;;;;;;1.50;1.40;;;;;;;;;;4987117;28;20192;-75
2022/06/06 14:28:20;;;;;;;1.60;1.50;;;;;;;;;;4998960;28;20188;-74
2022/06/06 14:30:46;;;;;;;1.60;1.50;;;;;;;;;;5003146;28;20309;-74
2022/06/06 14:33:39;;;;;;;3.87;1.60;;;;;;;;;;4993970;28;20179;-73
2022/06/06 14:36:27;;;;;;;1.80;1.60;;;;;;;;;;4971681;28;20283;-74
2022/06/06 14:39:00;;;;;;;3.10;1.50;;;;;;;;;;4980056;28;20217;-73
2022/06/06 14:41:35;;;;;;;3.20;1.60;;;;;;;;;;5014520;28;20603;-74
2022/06/06 14:44:03;;;;;;;2.40;1.77;;;;;;;;;;4997922;28;20544;-73
2022/06/06 14:46:45;;;;;;;4.03;2.00;;;;;;;;;;4988289;28;20184;-74
2022/06/06 14:49:12;;;;;;;2.47;1.60;;;;;;;;;;5016658;28;20214;-74
2022/06/06 14:51:47;;;;;;;2.43;1.70;;;;;;;;;;4995170;28;20210;-73
2022/06/06 14:54:14;;;;;;;1.93;1.70;;;;;;;;;;4974262;28;20227;-74
2022/06/06 14:56:50;;;;;;;2.40;1.80;;;;;;;;;;4980308;28;20697;-75
2022/06/06 14:59:21;;;;;;;1.70;1.60;;;;;;;;;;4999068;28;20217;-75
2022/06/06 15:01:49;;;;;;;1.93;1.50;;;;;;;;;;5013177;28;20168;-74
2022/06/06 15:04:21;;;;;;;2.27;1.63;;;;;;;;;;5013021;28;20168;-74
2022/06/06 15:06:58;;;;;;;2.80;1.47;;;;;;;;;;5002504;28;20240;-74
2022/06/06 15:09:35;;;;;;;2.13;1.60;;;;;;;;;;4999098;28;20318;-74
2022/06/06 15:12:01;;;;;;;2.77;1.40;;;;;;;;;;4992776;28;20185;-74
2022/06/06 15:14:32;;;;;;;1.63;1.20;;;;;;;;;;5021807;28;20212;-76
2022/06/06 15:16:59;;;;;;;2.03;1.27;;;;;;;;;;4992840;28;20193;-76
2022/06/06 15:19:25;;;;;;;1.40;1.30;;;;;;;;;;4992193;28;20548;-77
2022/06/06 15:21:52;;;;;;;1.63;1.30;;;;;;;;;;4990360;28;20180;-78
2022/06/06 15:24:21;;;;;;;1.60;1.40;;;;;;;;;;4991085;28;20180;-77
2022/06/06 15:26:49;;;;;;;2.03;1.43;;;;;;;;;;4992714;28;20228;-75
2022/06/06 15:29:21;;;;;;;1.93;1.30;;;;;;;;;;4990655;28;20247;-77
2022/06/06 15:32:00;;;;;;;2.47;1.47;;;;;;;;;;4992750;28;20550;-77
2022/06/06 15:34:41;;;;;;;2.83;1.70;;;;;;;;;;5001269;28;20731;-77
2022/06/06 15:37:16;;;;;;;3.93;1.73;;;;;;;;;;4986092;28;20194;-76
2022/06/06 15:39:50;;;;;;;1.70;1.60;;;;;;;;;;4989726;28;20218;-77
2022/06/06 15:42:29;;;;;;;2.10;1.60;;;;;;;;;;4987489;28;20190;-76
2022/06/06 15:45:15;;;;;;;1.40;1.30;;;;;;;;;;4984863;28;20180;-75
2022/06/06 15:47:51;;;;;;;2.83;1.43;;;;;;;;;;5003158;28;20202;-76
2022/06/06 15:50:36;;;;;;;2.43;1.70;;;;;;;;;;4986460;28;20596;-77
2022/06/06 15:53:17;;;;;;;2.53;1.53;;;;;;;;;;4988120;28;20646;-79
2022/06/06 15:55:55;;;;;;;2.33;1.57;;;;;;;;;;4987695;28;21039;-77
2022/06/06 15:58:45;;;;;;;2.00;1.40;;;;;;;;;;4988630;28;20558;-77
2022/06/06 16:01:30;;;;;;;3.27;1.50;;;;;;;;;;4995634;28;20257;-77
2022/06/06 16:03:56;;;;;;;3.50;1.70;;;;;;;;;;4993062;28;20179;-77
2022/06/06 16:06:25;;;;;;;2.07;1.80;;;;;;;;;;4984097;28;20183;-77
2022/06/06 16:09:18;;;;;;;1.97;1.57;;;;;;;;;;4985952;28;20192;-77
2022/06/06 16:12:04;;;;;;;1.73;1.60;;;;;;;;;;4989201;28;20261;-77
2022/06/06 16:14:46;;;;;;;1.80;1.50;;;;;;;;;;5000681;28;20190;-77
2022/06/06 16:17:31;;;;;;;2.27;1.70;;;;;;;;;;4985235;28;20286;-77
2022/06/06 16:20:05;;;;;;;2.20;1.77;;;;;;;;;;4993007;28;20211;-78
2022/06/06 16:22:36;;;;;;;2.87;1.70;;;;;;;;;;4992985;28;20184;-76
2022/06/06 16:25:04;;;;;;;2.33;1.67;;;;;;;;;;4989883;28;20210;-77
2022/06/06 16:27:31;;;;;;;2.93;1.30;;;;;;;;;;5003688;28;20242;-76
2022/06/06 16:30:07;;;;;;;2.90;1.40;;;;;;;;;;4988612;28;20211;-76
2022/06/06 16:32:39;;;;;;;2.37;1.50;;;;;;;;;;4990677;28;20195;-77
2022/06/06 16:35:24;;;;;;;1.97;1.50;;;;;;;;;;4990752;28;20199;-77
2022/06/06 16:38:10;;;;;;;1.50;1.40;;;;;;;;;;4994488;28;20267;-77
2022/06/06 16:40:39;;;;;;;2.33;1.80;;;;;;;;;;4983820;28;20271;-77
2022/06/06 16:49:23;;;;;;;2.53;1.60;;;;;;;;;;5000466;28;20211;-76